createdAt,value
2015-07-06T14:39:35.765Z,605
2015-07-06T14:39:54.140Z,605
2015-07-06T14:40:12.749Z,606
2015-07-06T14:40:31.126Z,605
2015-07-06T14:40:49.564Z,605
2015-07-06T14:41:07.986Z,605
2015-07-06T14:41:26.564Z,605
2015-07-06T14:41:44.941Z,605
2015-07-06T14:42:03.331Z,604
2015-07-06T14:42:21.769Z,604
2015-07-06T14:42:40.193Z,604
2015-07-06T14:42:58.958Z,604
2015-07-06T14:43:17.490Z,603
2015-07-06T14:43:36.099Z,604
2015-07-06T14:43:54.602Z,603
2015-07-06T14:44:13.071Z,603
2015-07-06T14:44:31.493Z,603
2015-07-06T14:44:49.853Z,603
2015-07-06T14:45:08.337Z,603
2015-07-06T14:45:26.900Z,603
2015-07-06T14:45:45.509Z,603
2015-07-06T14:46:03.980Z,603
2015-07-06T14:46:22.605Z,603
2015-07-06T14:46:41.011Z,603
2015-07-06T14:46:59.483Z,604
2015-07-06T14:47:17.952Z,604
2015-07-06T14:47:36.389Z,604
2015-07-06T14:47:54.936Z,602
2015-07-06T14:48:13.501Z,601
2015-07-06T14:48:32.235Z,595
2015-07-06T14:48:50.610Z,590
2015-07-06T14:49:09.253Z,579
2015-07-06T14:49:27.831Z,564
2015-07-06T14:49:46.190Z,570
2015-07-06T14:50:04.706Z,552
2015-07-06T14:50:23.317Z,561
2015-07-06T14:50:41.692Z,573
2015-07-06T14:51:00.130Z,575
2015-07-06T14:51:18.538Z,573
2015-07-06T14:51:37.085Z,525
2015-07-06T14:51:55.491Z,562
2015-07-06T14:52:13.975Z,585
2015-07-06T14:52:32.493Z,561
2015-07-06T14:52:51.071Z,592
2015-07-06T14:53:09.524Z,579
2015-07-06T14:53:27.887Z,574
2015-07-06T14:53:46.512Z,589
2015-07-06T14:54:05.183Z,591
2015-07-06T14:54:23.746Z,597
2015-07-06T14:54:42.356Z,600
2015-07-06T14:55:00.763Z,601
2015-07-06T14:55:19.419Z,600
2015-07-06T14:55:37.891Z,601
2015-07-06T14:55:56.344Z,601
2015-07-06T14:56:14.781Z,601
2015-07-06T14:56:33.187Z,601
2015-07-06T14:56:51.735Z,602
2015-07-06T14:57:10.157Z,601
2015-07-06T14:57:28.657Z,602
2015-07-06T14:57:47.035Z,601
2015-07-06T14:58:05.660Z,601
2015-07-06T14:58:24.410Z,601
2015-07-06T14:58:43.113Z,600
2015-07-06T14:59:01.506Z,600
2015-07-06T14:59:19.990Z,600
2015-07-06T14:59:38.600Z,600
2015-07-06T14:59:57.117Z,600
2015-07-06T15:00:15.524Z,600
2015-07-06T15:00:34.039Z,600
2015-07-06T15:00:52.430Z,600
2015-07-06T15:01:10.963Z,600
2015-07-06T15:01:29.588Z,600
2015-07-06T15:01:47.947Z,600
2015-07-06T15:02:06.731Z,600
2015-07-06T15:02:25.215Z,600
2015-07-06T15:02:43.965Z,600
2015-07-06T15:03:02.403Z,600
2015-07-06T15:03:21.014Z,600
2015-07-06T15:03:39.514Z,600
2015-07-06T15:03:57.983Z,600
2015-07-06T15:04:16.641Z,600
2015-07-06T15:04:35.235Z,601
2015-07-06T15:04:53.782Z,600
2015-07-06T15:05:12.282Z,600
2015-07-06T15:05:30.660Z,600
2015-07-06T15:05:49.300Z,600
2015-07-06T15:06:07.878Z,600
2015-07-06T15:06:26.364Z,600
2015-07-06T15:06:44.848Z,601
2015-07-06T15:07:03.426Z,600
2015-07-06T15:07:21.895Z,600
2015-07-06T15:07:40.335Z,601
2015-07-06T15:07:58.695Z,601
2015-07-06T15:08:17.429Z,601
2015-07-06T15:08:35.806Z,601
2015-07-06T15:08:54.259Z,601
2015-07-06T15:09:12.666Z,601
2015-07-06T15:09:31.322Z,601
2015-07-06T15:09:49.792Z,601
2015-07-06T15:10:08.260Z,601
2015-07-06T15:10:26.776Z,601
2015-07-06T15:10:45.200Z,601
2015-07-06T15:11:04.106Z,601
2015-07-06T15:11:22.762Z,600
2015-07-06T15:11:41.137Z,600
2015-07-06T15:11:59.624Z,601
2015-07-06T15:12:18.311Z,600
2015-07-06T15:12:36.983Z,600
2015-07-06T15:12:55.424Z,600
2015-07-06T15:13:14.064Z,600
2015-07-06T15:13:32.658Z,600
2015-07-06T15:13:51.080Z,600
2015-07-06T15:14:09.972Z,600
2015-07-06T15:14:28.457Z,600
2015-07-06T15:14:46.863Z,600
2015-07-06T15:15:05.255Z,600
2015-07-06T15:15:24.005Z,600
2015-07-06T15:15:42.630Z,600
2015-07-06T15:16:01.098Z,600
2015-07-06T15:16:19.445Z,600
2015-07-06T15:16:38.070Z,600
2015-07-06T15:16:56.476Z,600
2015-07-06T15:17:15.166Z,601
2015-07-06T15:17:33.666Z,601
2015-07-06T15:17:52.432Z,601
2015-07-06T15:18:10.666Z,600
2015-07-06T15:18:28.934Z,600
2015-07-06T15:18:47.387Z,600
2015-07-06T15:19:05.824Z,600
2015-07-06T15:19:24.326Z,600
2015-07-06T15:19:42.732Z,600
2015-07-06T15:20:01.107Z,600
2015-07-06T15:20:19.482Z,600
2015-07-06T15:20:37.876Z,600
2015-07-06T15:20:56.267Z,600
2015-07-06T15:21:17.673Z,600
2015-07-06T15:21:36.049Z,600
2015-07-06T15:21:54.440Z,600
2015-07-06T15:22:12.830Z,600
2015-07-06T15:22:31.254Z,601
2015-07-06T15:22:49.629Z,600
2015-07-06T15:23:08.067Z,600
2015-07-06T15:23:26.660Z,600
2015-07-06T15:23:45.037Z,600
2015-07-06T15:24:03.412Z,600
2015-07-06T15:24:21.834Z,600
2015-07-06T15:24:40.242Z,601
2015-07-06T15:24:58.649Z,600
2015-07-06T15:25:17.024Z,600
2015-07-06T15:25:35.399Z,601
2015-07-06T15:25:53.791Z,600
2015-07-06T15:26:12.182Z,600
2015-07-06T15:26:30.557Z,600
2015-07-06T15:26:48.950Z,600
2015-07-06T15:27:07.356Z,599
2015-07-06T15:27:25.762Z,599
2015-07-06T15:27:43.512Z,599
2015-07-06T15:28:01.920Z,598
2015-07-06T15:28:20.389Z,599
2015-07-06T15:28:38.858Z,599
2015-07-06T15:28:57.250Z,599
2015-07-06T15:29:15.625Z,599
2015-07-06T15:29:34.032Z,599
2015-07-06T15:29:52.438Z,599
2015-07-06T15:30:10.847Z,599
2015-07-06T15:30:29.238Z,599
2015-07-06T15:30:47.613Z,599
2015-07-06T15:31:06.004Z,599
2015-07-06T15:31:24.379Z,599
2015-07-06T15:31:42.754Z,599
2015-07-06T15:32:01.145Z,599
2015-07-06T15:32:18.881Z,599
2015-07-06T15:32:37.256Z,599
2015-07-06T15:32:55.616Z,599
2015-07-06T15:33:14.008Z,599
2015-07-06T15:33:32.430Z,598
2015-07-06T15:33:50.805Z,599
2015-07-06T15:34:09.180Z,599
2015-07-06T15:34:27.601Z,599
2015-07-06T15:34:46.023Z,599
2015-07-06T15:35:04.758Z,600
2015-07-06T15:35:23.180Z,600
2015-07-06T15:35:41.695Z,600
2015-07-06T15:36:00.180Z,600
2015-07-06T15:36:18.695Z,600
2015-07-06T15:36:37.169Z,600
2015-07-06T15:36:55.575Z,600
2015-07-06T15:37:14.107Z,600
2015-07-06T15:37:32.825Z,600
2015-07-06T15:37:51.310Z,600
2015-07-06T15:38:09.872Z,600
2015-07-06T15:38:28.263Z,600
2015-07-06T15:38:47.072Z,600
2015-07-06T15:39:05.447Z,600
2015-07-06T15:39:23.915Z,600
2015-07-06T15:39:42.527Z,600
2015-07-06T15:40:01.011Z,600
2015-07-06T15:40:19.433Z,600
2015-07-06T15:40:37.808Z,600
2015-07-06T15:40:56.203Z,600
2015-07-06T15:41:14.625Z,600
2015-07-06T15:41:33.063Z,600
2015-07-06T15:41:51.456Z,600
2015-07-06T15:42:09.831Z,600
2015-07-06T15:42:28.440Z,600
2015-07-06T15:42:47.190Z,600
2015-07-06T15:43:05.663Z,599
2015-07-06T15:43:24.054Z,600
2015-07-06T15:43:42.429Z,600
2015-07-06T15:44:00.830Z,600
2015-07-06T15:44:19.205Z,600
2015-07-06T15:44:37.690Z,600
2015-07-06T15:44:56.127Z,600
2015-07-06T15:45:14.621Z,600
2015-07-06T15:45:33.105Z,600
2015-07-06T15:45:51.480Z,600
2015-07-06T15:46:10.035Z,600
2015-07-06T15:46:28.535Z,600
2015-07-06T15:46:47.176Z,600
2015-07-06T15:47:05.676Z,600
2015-07-06T15:47:24.060Z,600
2015-07-06T15:47:42.560Z,600
2015-07-06T15:48:01.169Z,600
2015-07-06T15:48:19.755Z,600
2015-07-06T15:48:38.302Z,600
2015-07-06T15:48:56.724Z,600
2015-07-06T15:49:15.146Z,601
2015-07-06T15:49:33.587Z,601
2015-07-06T15:49:52.056Z,601
2015-07-06T15:50:10.712Z,601
2015-07-06T15:50:29.138Z,601
2015-07-06T15:50:47.716Z,601
2015-07-06T15:51:06.201Z,601
2015-07-06T15:51:24.654Z,601
2015-07-06T15:51:43.081Z,601
2015-07-06T15:52:01.502Z,601
2015-07-06T15:52:19.971Z,601
2015-07-06T15:52:38.600Z,601
2015-07-06T15:52:57.038Z,601
2015-07-06T15:53:15.694Z,601
2015-07-06T15:53:33.569Z,601
2015-07-06T15:53:52.026Z,600
2015-07-06T15:54:10.557Z,601
2015-07-06T15:54:29.057Z,601
2015-07-06T15:54:47.434Z,601
2015-07-06T15:55:06.200Z,601
2015-07-06T15:55:24.716Z,601
2015-07-06T15:55:43.200Z,601
2015-07-06T15:56:01.687Z,601
2015-07-06T15:56:20.109Z,601
2015-07-06T15:56:38.547Z,601
2015-07-06T15:56:57.222Z,601
2015-07-06T15:57:15.628Z,601
2015-07-06T15:57:34.065Z,601
2015-07-06T15:57:52.487Z,601
2015-07-06T15:58:11.021Z,601
2015-07-06T15:58:29.443Z,601
2015-07-06T15:58:47.959Z,601
2015-07-06T15:59:06.868Z,600
2015-07-06T15:59:25.321Z,601
2015-07-06T15:59:43.899Z,600
2015-07-06T16:00:02.321Z,601
2015-07-06T16:00:20.714Z,601
2015-07-06T16:00:39.120Z,601
2015-07-06T16:00:57.511Z,600
2015-07-06T16:01:15.919Z,600
2015-07-06T16:01:34.294Z,601
2015-07-06T16:01:52.732Z,601
2015-07-06T16:02:11.122Z,600
2015-07-06T16:02:29.531Z,600
2015-07-06T16:02:47.938Z,601
2015-07-06T16:03:06.297Z,600
2015-07-06T16:03:24.690Z,600
2015-07-06T16:03:43.080Z,600
2015-07-06T16:04:01.487Z,600
2015-07-06T16:04:19.877Z,600
2015-07-06T16:04:38.254Z,601
2015-07-06T16:04:56.676Z,600
2015-07-06T16:05:15.067Z,600
2015-07-06T16:05:33.444Z,600
2015-07-06T16:05:51.850Z,600
2015-07-06T16:06:10.256Z,600
2015-07-06T16:06:28.631Z,600
2015-07-06T16:06:47.039Z,600
2015-07-06T16:07:05.430Z,600
2015-07-06T16:07:23.805Z,599
2015-07-06T16:07:42.198Z,599
2015-07-06T16:08:00.573Z,600
2015-07-06T16:08:18.963Z,600
2015-07-06T16:08:37.370Z,600
2015-07-06T16:08:55.748Z,599
2015-07-06T16:09:14.138Z,599
2015-07-06T16:09:32.529Z,601
2015-07-06T16:09:50.967Z,600
2015-07-06T16:10:09.342Z,600
2015-07-06T16:10:27.764Z,601
2015-07-06T16:10:46.202Z,600
2015-07-06T16:11:04.580Z,601
2015-07-06T16:11:22.955Z,601
2015-07-06T16:11:41.330Z,601
2015-07-06T16:11:59.769Z,601
2015-07-06T16:12:18.457Z,600
2015-07-06T16:12:36.847Z,601
2015-07-06T16:12:55.238Z,601
2015-07-06T16:13:13.834Z,601
2015-07-06T16:13:32.224Z,601
2015-07-06T16:13:50.787Z,601
2015-07-06T16:14:09.804Z,601
2015-07-06T16:14:28.179Z,601
2015-07-06T16:14:46.554Z,601
2015-07-06T16:15:04.976Z,601
2015-07-06T16:15:23.385Z,601
2015-07-06T16:15:41.775Z,601
2015-07-06T16:16:00.322Z,601
2015-07-06T16:16:19.262Z,600
2015-07-06T16:16:37.652Z,601
2015-07-06T16:16:56.152Z,600
2015-07-06T16:17:14.933Z,600
2015-07-06T16:17:33.404Z,601
2015-07-06T16:17:51.904Z,600
2015-07-06T16:18:10.623Z,600
2015-07-06T16:18:29.172Z,600
2015-07-06T16:18:47.578Z,600
2015-07-06T16:19:06.078Z,600
2015-07-06T16:19:24.562Z,600
2015-07-06T16:19:43.080Z,601
2015-07-06T16:20:01.518Z,600
2015-07-06T16:20:20.018Z,600
2015-07-06T16:20:38.801Z,600
2015-07-06T16:20:57.441Z,600
2015-07-06T16:21:16.004Z,601
2015-07-06T16:21:34.441Z,600
2015-07-06T16:21:53.007Z,601
2015-07-06T16:22:11.538Z,600
2015-07-06T16:22:29.944Z,601
2015-07-06T16:22:48.415Z,600
2015-07-06T16:23:06.962Z,600
2015-07-06T16:23:25.478Z,600
2015-07-06T16:23:43.884Z,600
2015-07-06T16:24:02.260Z,600
2015-07-06T16:24:20.697Z,600
2015-07-06T16:24:39.338Z,600
2015-07-06T16:24:57.747Z,600
2015-07-06T16:25:16.216Z,600
2015-07-06T16:25:34.669Z,600
2015-07-06T16:25:53.325Z,600
2015-07-06T16:26:11.734Z,600
2015-07-06T16:26:30.359Z,600
2015-07-06T16:26:48.859Z,599
2015-07-06T16:27:07.314Z,600
2015-07-06T16:27:26.095Z,600
2015-07-06T16:27:44.626Z,600
2015-07-06T16:28:03.048Z,600
2015-07-06T16:28:21.456Z,600
2015-07-06T16:28:39.972Z,600
2015-07-06T16:28:58.472Z,600
2015-07-06T16:29:16.990Z,600
2015-07-06T16:29:35.365Z,600
2015-07-06T16:29:53.912Z,601
2015-07-06T16:30:12.427Z,600
2015-07-06T16:30:31.085Z,600
2015-07-06T16:30:49.460Z,600
2015-07-06T16:31:07.992Z,600
2015-07-06T16:31:26.541Z,600
2015-07-06T16:31:44.916Z,600
2015-07-06T16:32:03.400Z,600
2015-07-06T16:32:21.837Z,600
2015-07-06T16:32:40.230Z,601
2015-07-06T16:32:58.824Z,600
2015-07-06T16:33:17.386Z,601
2015-07-06T16:33:36.013Z,600
2015-07-06T16:33:54.748Z,600
2015-07-06T16:34:13.201Z,600
2015-07-06T16:34:31.607Z,600
2015-07-06T16:34:50.172Z,600
2015-07-06T16:35:08.656Z,601
2015-07-06T16:35:27.406Z,601
2015-07-06T16:35:46.064Z,601
2015-07-06T16:36:04.502Z,601
2015-07-06T16:36:22.970Z,600
2015-07-06T16:36:41.502Z,600
2015-07-06T16:36:59.973Z,601
2015-07-06T16:37:18.630Z,600
2015-07-06T16:37:37.005Z,600
2015-07-06T16:37:55.631Z,601
2015-07-06T16:38:14.131Z,600
2015-07-06T16:38:32.693Z,600
2015-07-06T16:38:51.099Z,601
2015-07-06T16:39:09.571Z,600
2015-07-06T16:39:31.181Z,599
2015-07-06T16:39:49.571Z,600
2015-07-06T16:40:08.261Z,600
2015-07-06T16:40:26.714Z,600
2015-07-06T16:40:45.120Z,600
2015-07-06T16:41:03.575Z,600
2015-07-06T16:41:22.044Z,600
2015-07-06T16:41:40.560Z,600
2015-07-06T16:41:58.778Z,600
2015-07-06T16:42:17.186Z,600
2015-07-06T16:42:36.451Z,600
2015-07-06T16:42:54.764Z,600
2015-07-06T16:43:13.189Z,600
2015-07-06T16:43:31.689Z,600
2015-07-06T16:43:50.173Z,600
2015-07-06T16:44:08.485Z,600
2015-07-06T16:44:27.284Z,600
2015-07-06T16:44:45.894Z,600
2015-07-06T16:45:04.378Z,600
2015-07-06T16:45:22.818Z,600
2015-07-06T16:45:41.521Z,600
2015-07-06T16:46:00.130Z,600
2015-07-06T16:46:18.599Z,600
2015-07-06T16:46:37.038Z,600
2015-07-06T16:46:55.585Z,600
2015-07-06T16:47:14.116Z,600
2015-07-06T16:47:32.587Z,600
2015-07-06T16:47:51.197Z,600
2015-07-06T16:48:09.665Z,600
2015-07-06T16:48:28.072Z,600
2015-07-06T16:48:46.653Z,601
2015-07-06T16:49:05.293Z,601
2015-07-06T16:49:23.715Z,601
2015-07-06T16:49:42.591Z,601
2015-07-06T16:50:00.966Z,601
2015-07-06T16:50:19.576Z,601
2015-07-06T16:50:38.091Z,601
2015-07-06T16:50:56.921Z,601
2015-07-06T16:51:15.718Z,601
2015-07-06T16:51:34.234Z,601
2015-07-06T16:51:52.642Z,601
2015-07-06T16:52:11.048Z,601
2015-07-06T16:52:29.580Z,601
2015-07-06T16:52:48.205Z,601
2015-07-06T16:53:06.754Z,601
2015-07-06T16:53:25.301Z,601
2015-07-06T16:53:44.223Z,601
2015-07-06T16:54:02.693Z,601
2015-07-06T16:54:21.334Z,601
2015-07-06T16:54:39.740Z,602
2015-07-06T16:54:58.271Z,601
2015-07-06T16:55:16.742Z,602
2015-07-06T16:55:35.164Z,602
2015-07-06T16:55:53.679Z,602
2015-07-06T16:56:12.150Z,602
2015-07-06T16:56:30.619Z,602
2015-07-06T16:56:49.103Z,602
2015-07-06T16:57:07.525Z,602
2015-07-06T16:57:25.933Z,602
2015-07-06T16:57:44.527Z,602
2015-07-06T16:58:03.199Z,602
2015-07-06T16:58:21.888Z,602
2015-07-06T16:58:40.529Z,602
2015-07-06T16:59:02.263Z,602
2015-07-06T16:59:21.141Z,602
2015-07-06T16:59:39.735Z,602
2015-07-06T16:59:58.110Z,602
2015-07-06T17:00:16.501Z,602
2015-07-06T17:00:35.112Z,602
2015-07-06T17:00:53.659Z,602
2015-07-06T17:01:12.284Z,602
2015-07-06T17:01:30.802Z,602
2015-07-06T17:01:49.208Z,602
2015-07-06T17:02:07.614Z,602
2015-07-06T17:02:26.458Z,602
2015-07-06T17:02:44.897Z,602
2015-07-06T17:03:03.554Z,602
2015-07-06T17:03:21.976Z,602
2015-07-06T17:03:40.415Z,603
2015-07-06T17:03:58.962Z,602
2015-07-06T17:04:17.665Z,602
2015-07-06T17:04:36.056Z,602
2015-07-06T17:04:54.606Z,602
2015-07-06T17:05:13.152Z,602
2015-07-06T17:05:31.793Z,603
2015-07-06T17:05:50.357Z,603
2015-07-06T17:06:08.747Z,603
2015-07-06T17:06:27.122Z,603
2015-07-06T17:06:45.732Z,603
2015-07-06T17:07:04.234Z,603
2015-07-06T17:07:22.687Z,603
2015-07-06T17:07:41.140Z,603
2015-07-06T17:07:59.657Z,603
2015-07-06T17:08:18.111Z,603
2015-07-06T17:08:36.564Z,603
2015-07-06T17:08:54.970Z,603
2015-07-06T17:09:13.348Z,604
2015-07-06T17:09:31.754Z,604
2015-07-06T17:09:50.223Z,604
2015-07-06T17:10:08.786Z,604
2015-07-06T17:10:27.177Z,604
2015-07-06T17:10:45.708Z,604
2015-07-06T17:11:04.146Z,604
2015-07-06T17:11:22.523Z,604
2015-07-06T17:11:41.054Z,604
2015-07-06T17:11:59.695Z,604
2015-07-06T17:12:18.104Z,604
2015-07-06T17:12:36.557Z,604
2015-07-06T17:12:55.073Z,604
2015-07-06T17:13:13.791Z,604
2015-07-06T17:13:32.715Z,604
2015-07-06T17:13:51.122Z,604
2015-07-06T17:14:09.762Z,604
2015-07-06T17:14:28.419Z,604
2015-07-06T17:14:47.138Z,604
2015-07-06T17:15:05.873Z,604
2015-07-06T17:15:24.437Z,604
2015-07-06T17:15:42.828Z,604
2015-07-06T17:16:01.343Z,604
2015-07-06T17:16:19.968Z,604
2015-07-06T17:16:38.378Z,604
2015-07-06T17:16:56.831Z,604
2015-07-06T17:17:15.268Z,604
2015-07-06T17:17:33.754Z,604
2015-07-06T17:17:52.160Z,604
2015-07-06T17:18:10.879Z,604
2015-07-06T17:18:29.504Z,604
2015-07-06T17:18:48.069Z,604
2015-07-06T17:19:06.710Z,604
2015-07-06T17:19:25.553Z,604
2015-07-06T17:19:44.195Z,604
2015-07-06T17:20:02.742Z,605
2015-07-06T17:20:21.258Z,605
2015-07-06T17:20:42.916Z,605
2015-07-06T17:21:01.385Z,605
2015-07-06T17:21:19.838Z,605
2015-07-06T17:21:38.306Z,605
2015-07-06T17:21:56.388Z,605
2015-07-06T17:22:14.888Z,605
2015-07-06T17:22:33.294Z,604
2015-07-06T17:22:51.686Z,604
2015-07-06T17:23:10.296Z,605
2015-07-06T17:23:28.905Z,604
2015-07-06T17:23:47.280Z,604
2015-07-06T17:24:05.798Z,604
2015-07-06T17:24:24.235Z,604
2015-07-06T17:24:42.595Z,603
2015-07-06T17:25:00.972Z,604
2015-07-06T17:25:19.362Z,604
2015-07-06T17:25:37.737Z,604
2015-07-06T17:25:56.112Z,603
2015-07-06T17:26:14.489Z,603
2015-07-06T17:26:32.864Z,604
2015-07-06T17:26:51.271Z,603
2015-07-06T17:27:09.632Z,603
2015-07-06T17:27:28.101Z,603
2015-07-06T17:27:46.491Z,603
2015-07-06T17:28:04.866Z,603
2015-07-06T17:28:23.243Z,603
2015-07-06T17:28:41.618Z,604
2015-07-06T17:28:59.993Z,604
2015-07-06T17:29:18.370Z,604
2015-07-06T17:29:36.745Z,604
2015-07-06T17:29:55.120Z,604
2015-07-06T17:30:13.480Z,604
2015-07-06T17:30:31.858Z,604
2015-07-06T17:30:50.217Z,604
2015-07-06T17:31:08.639Z,604
2015-07-06T17:31:27.031Z,604
2015-07-06T17:31:45.390Z,604
2015-07-06T17:32:03.749Z,604
2015-07-06T17:32:22.124Z,604
2015-07-06T17:32:40.501Z,603
2015-07-06T17:32:58.876Z,603
2015-07-06T17:33:17.267Z,604
2015-07-06T17:33:35.676Z,603
2015-07-06T17:33:53.411Z,603
2015-07-06T17:34:12.223Z,604
2015-07-06T17:34:30.582Z,603
2015-07-06T17:34:49.100Z,604
2015-07-06T17:35:07.475Z,604
2015-07-06T17:35:26.256Z,604
2015-07-06T17:35:44.695Z,604
2015-07-06T17:36:03.054Z,604
2015-07-06T17:36:21.429Z,604
2015-07-06T17:36:39.992Z,603
2015-07-06T17:36:58.682Z,603
2015-07-06T17:37:17.073Z,604
2015-07-06T17:37:35.698Z,603
2015-07-06T17:37:54.230Z,604
2015-07-06T17:38:12.793Z,604
2015-07-06T17:38:31.339Z,604
2015-07-06T17:38:50.152Z,603
2015-07-06T17:39:09.061Z,603
2015-07-06T17:39:27.577Z,604
2015-07-06T17:39:46.296Z,604
2015-07-06T17:40:04.718Z,603
2015-07-06T17:40:23.687Z,603
2015-07-06T17:40:42.343Z,603
2015-07-06T17:41:00.781Z,603
2015-07-06T17:41:19.190Z,603
2015-07-06T17:41:37.784Z,603
2015-07-06T17:41:56.159Z,604
2015-07-06T17:42:14.942Z,604
2015-07-06T17:42:33.552Z,604
2015-07-06T17:42:52.098Z,603
2015-07-06T17:43:10.786Z,604
2015-07-06T17:43:29.211Z,604
2015-07-06T17:43:47.711Z,604
2015-07-06T17:44:06.226Z,604
2015-07-06T17:44:24.696Z,604
2015-07-06T17:44:43.399Z,604
2015-07-06T17:45:02.071Z,604
2015-07-06T17:45:20.712Z,604
2015-07-06T17:45:39.090Z,604
2015-07-06T17:45:57.543Z,604
2015-07-06T17:46:16.059Z,604
2015-07-06T17:46:34.435Z,604
2015-07-06T17:46:52.997Z,604
2015-07-06T17:47:11.497Z,604
2015-07-06T17:47:29.888Z,605
2015-07-06T17:47:48.500Z,604
2015-07-06T17:48:06.984Z,604
2015-07-06T17:48:25.438Z,604
2015-07-06T17:48:43.846Z,604
2015-07-06T17:49:02.580Z,604
2015-07-06T17:49:21.174Z,604
2015-07-06T17:49:39.690Z,604
2015-07-06T17:49:58.442Z,604
2015-07-06T17:50:17.192Z,604
2015-07-06T17:50:35.832Z,604
2015-07-06T17:50:54.771Z,604
2015-07-06T17:51:13.333Z,604
2015-07-06T17:51:31.802Z,604
2015-07-06T17:51:50.255Z,604
2015-07-06T17:52:08.883Z,604
2015-07-06T17:52:27.274Z,604
2015-07-06T17:52:45.758Z,604
2015-07-06T17:53:04.463Z,605
2015-07-06T17:53:22.854Z,605
2015-07-06T17:53:41.182Z,605
2015-07-06T17:53:59.760Z,605
2015-07-06T17:54:18.137Z,605
2015-07-06T17:54:36.590Z,604
2015-07-06T17:54:55.059Z,604
2015-07-06T17:55:13.764Z,604
2015-07-06T17:55:32.264Z,604
2015-07-06T17:55:50.702Z,604
2015-07-06T17:56:09.405Z,604
2015-07-06T17:56:27.860Z,604
2015-07-06T17:56:46.454Z,604
2015-07-06T17:57:04.985Z,604
2015-07-06T17:57:23.362Z,604
2015-07-06T17:57:42.096Z,605
2015-07-06T17:58:00.502Z,605
2015-07-06T17:58:18.987Z,604
2015-07-06T17:58:37.598Z,604
2015-07-06T17:58:56.036Z,604
2015-07-06T17:59:14.739Z,604
2015-07-06T17:59:33.225Z,604
2015-07-06T17:59:51.772Z,604
2015-07-06T18:00:10.460Z,604
2015-07-06T18:00:28.835Z,604
2015-07-06T18:00:47.555Z,604
2015-07-06T18:01:06.102Z,604
2015-07-06T18:01:24.680Z,604
2015-07-06T18:01:43.074Z,604
2015-07-06T18:02:01.574Z,604
2015-07-06T18:02:20.168Z,604
2015-07-06T18:02:38.574Z,604
2015-07-06T18:02:56.295Z,604
2015-07-06T18:03:14.763Z,604
2015-07-06T18:03:33.373Z,604
2015-07-06T18:03:52.047Z,604
2015-07-06T18:04:10.750Z,604
2015-07-06T18:04:29.156Z,604
2015-07-06T18:04:47.562Z,604
2015-07-06T18:05:06.330Z,604
2015-07-06T18:05:24.736Z,604
2015-07-06T18:05:43.174Z,604
2015-07-06T18:06:01.785Z,605
2015-07-06T18:06:20.285Z,604
2015-07-06T18:06:38.863Z,604
2015-07-06T18:06:57.441Z,604
2015-07-06T18:07:16.084Z,604
2015-07-06T18:07:34.912Z,604
2015-07-06T18:07:53.287Z,605
2015-07-06T18:08:11.742Z,604
2015-07-06T18:08:30.180Z,605
2015-07-06T18:08:48.711Z,604
2015-07-06T18:09:07.242Z,604
2015-07-06T18:09:25.635Z,604
2015-07-06T18:09:44.182Z,604
2015-07-06T18:10:02.572Z,604
2015-07-06T18:10:21.012Z,604
2015-07-06T18:10:39.481Z,604
2015-07-06T18:10:57.965Z,604
2015-07-06T18:11:16.434Z,604
2015-07-06T18:11:34.904Z,604
2015-07-06T18:11:53.451Z,605
2015-07-06T18:12:11.920Z,604
2015-07-06T18:12:30.532Z,605
2015-07-06T18:12:49.517Z,605
2015-07-06T18:13:07.939Z,605
2015-07-06T18:13:26.423Z,605
2015-07-06T18:13:44.783Z,605
2015-07-06T18:14:03.346Z,605
2015-07-06T18:14:21.768Z,605
2015-07-06T18:14:40.239Z,605
2015-07-06T18:14:59.082Z,605
2015-07-06T18:15:17.473Z,605
2015-07-06T18:15:35.864Z,605
2015-07-06T18:15:54.398Z,605
2015-07-06T18:16:12.898Z,605
2015-07-06T18:16:31.523Z,605
2015-07-06T18:16:49.914Z,605
2015-07-06T18:17:08.430Z,605
2015-07-06T18:17:26.805Z,605
2015-07-06T18:17:45.289Z,605
2015-07-06T18:18:03.667Z,605
2015-07-06T18:18:22.152Z,605
2015-07-06T18:18:40.542Z,605
2015-07-06T18:18:58.951Z,605
2015-07-06T18:19:17.435Z,606
2015-07-06T18:19:36.169Z,605
2015-07-06T18:19:54.638Z,605
2015-07-06T18:20:13.250Z,605
2015-07-06T18:20:31.656Z,606
2015-07-06T18:20:50.125Z,606
2015-07-06T18:21:08.502Z,606
2015-07-06T18:21:26.986Z,606
2015-07-06T18:21:45.533Z,605
2015-07-06T18:22:04.095Z,605
2015-07-06T18:22:22.535Z,605
2015-07-06T18:22:41.113Z,605
2015-07-06T18:22:59.644Z,605
2015-07-06T18:23:18.318Z,606
2015-07-06T18:23:36.896Z,605
2015-07-06T18:23:55.318Z,605
2015-07-06T18:24:13.818Z,606
2015-07-06T18:24:32.586Z,605
2015-07-06T18:24:50.961Z,605
2015-07-06T18:25:09.539Z,605
2015-07-06T18:25:28.119Z,606
2015-07-06T18:25:46.525Z,606
2015-07-06T18:26:05.103Z,606
2015-07-06T18:26:23.525Z,605
2015-07-06T18:26:41.918Z,605
2015-07-06T18:27:00.324Z,605
2015-07-06T18:27:18.715Z,605
2015-07-06T18:27:37.404Z,606
2015-07-06T18:27:55.748Z,606
2015-07-06T18:28:14.326Z,606
2015-07-06T18:28:32.889Z,606
2015-07-06T18:28:51.548Z,606
2015-07-06T18:29:09.970Z,605
2015-07-06T18:29:28.392Z,605
2015-07-06T18:29:46.815Z,606
2015-07-06T18:30:05.253Z,605
2015-07-06T18:30:23.675Z,606
2015-07-06T18:30:41.394Z,606
2015-07-06T18:30:59.802Z,606
2015-07-06T18:31:18.255Z,605
2015-07-06T18:31:36.849Z,606
2015-07-06T18:31:55.318Z,606
2015-07-06T18:32:13.850Z,606
2015-07-06T18:32:32.225Z,605
2015-07-06T18:32:50.600Z,605
2015-07-06T18:33:08.993Z,605
2015-07-06T18:33:27.478Z,605
2015-07-06T18:33:45.884Z,606
2015-07-06T18:34:04.464Z,605
2015-07-06T18:34:22.902Z,605
2015-07-06T18:34:41.808Z,605
2015-07-06T18:35:00.277Z,605
2015-07-06T18:35:18.794Z,605
2015-07-06T18:35:37.185Z,605
2015-07-06T18:35:55.638Z,605
2015-07-06T18:36:14.046Z,605
2015-07-06T18:36:32.640Z,605
2015-07-06T18:36:51.484Z,605
2015-07-06T18:37:10.312Z,605
2015-07-06T18:37:28.876Z,605
2015-07-06T18:37:47.501Z,605
2015-07-06T18:38:06.048Z,604
2015-07-06T18:38:24.487Z,605
2015-07-06T18:38:43.065Z,605
2015-07-06T18:39:01.565Z,605
2015-07-06T18:39:20.330Z,605
2015-07-06T18:39:39.052Z,604
2015-07-06T18:39:57.443Z,604
2015-07-06T18:40:16.287Z,605
2015-07-06T18:40:34.679Z,604
2015-07-06T18:40:53.070Z,604
2015-07-06T18:41:11.554Z,604
2015-07-06T18:41:29.960Z,604
2015-07-06T18:41:48.572Z,604
2015-07-06T18:42:07.056Z,603
2015-07-06T18:42:25.619Z,604
2015-07-06T18:42:44.074Z,604
2015-07-06T18:43:02.605Z,604
2015-07-06T18:43:21.168Z,604
2015-07-06T18:43:39.793Z,604
2015-07-06T18:43:58.310Z,604
2015-07-06T18:44:16.763Z,605
2015-07-06T18:44:35.498Z,604
2015-07-06T18:44:54.000Z,604
2015-07-06T18:45:12.359Z,604
2015-07-06T18:45:30.828Z,604
2015-07-06T18:45:49.406Z,604
2015-07-06T18:46:08.064Z,604
2015-07-06T18:46:26.595Z,604
2015-07-06T18:46:45.174Z,604
2015-07-06T18:47:03.582Z,605
2015-07-06T18:47:21.988Z,604
2015-07-06T18:47:40.644Z,604
2015-07-06T18:47:59.019Z,605
2015-07-06T18:48:17.553Z,605
2015-07-06T18:48:36.006Z,605
2015-07-06T18:48:54.443Z,604
2015-07-06T18:49:13.009Z,605
2015-07-06T18:49:31.509Z,605
2015-07-06T18:49:49.915Z,605
2015-07-06T18:50:08.290Z,605
2015-07-06T18:50:26.683Z,605
2015-07-06T18:50:45.058Z,605
2015-07-06T18:51:03.745Z,605
2015-07-06T18:51:22.310Z,604
2015-07-06T18:51:40.731Z,604
2015-07-06T18:51:59.231Z,604
2015-07-06T18:52:17.841Z,604
2015-07-06T18:52:36.296Z,604
2015-07-06T18:52:54.749Z,604
2015-07-06T18:53:13.530Z,604
2015-07-06T18:53:32.032Z,604
2015-07-06T18:53:50.532Z,603
2015-07-06T18:54:08.798Z,602
2015-07-06T18:54:27.220Z,602